createdAt,value
2023-04-02T00:01:02.785Z,2.67
2023-04-02T00:03:34.874Z,2.90
2023-04-02T00:06:06.818Z,2.67
2023-04-02T00:08:38.686Z,2.40
2023-04-02T00:11:10.479Z,2.30
2023-04-02T00:13:42.558Z,3.00
2023-04-02T00:16:14.460Z,2.50
2023-04-02T00:18:46.588Z,2.53
2023-04-02T00:21:18.487Z,3.07
2023-04-02T00:23:50.463Z,3.03
2023-04-02T00:26:22.340Z,2.80
2023-04-02T00:28:54.225Z,2.90
2023-04-02T00:31:26.157Z,2.90
2023-04-02T00:33:57.957Z,3.43
2023-04-02T00:36:29.867Z,2.90
2023-04-02T00:39:01.668Z,3.17
2023-04-02T00:41:33.537Z,3.33
2023-04-02T00:44:05.392Z,2.47
2023-04-02T00:46:37.418Z,2.47
2023-04-02T00:49:20.168Z,3.13
2023-04-02T00:51:50.730Z,3.67
2023-04-02T00:54:22.566Z,3.50
2023-04-02T00:56:54.525Z,2.67
2023-04-02T00:59:26.599Z,2.83
2023-04-02T01:01:58.746Z,2.23
2023-04-02T01:04:30.631Z,2.70
2023-04-02T01:07:02.672Z,3.13
2023-04-02T01:09:34.572Z,3.33
2023-04-02T01:12:06.696Z,3.37
2023-04-02T01:14:38.557Z,2.83
2023-04-02T01:17:10.381Z,2.77
2023-04-02T01:19:42.205Z,3.17
2023-04-02T01:22:14.023Z,2.50
2023-04-02T01:24:45.928Z,3.60
2023-04-02T01:27:17.945Z,2.90
2023-04-02T01:29:49.886Z,2.60
2023-04-02T01:32:21.750Z,2.50
2023-04-02T01:34:53.723Z,3.53
2023-04-02T01:37:25.516Z,2.93
2023-04-02T01:39:57.345Z,2.63
2023-04-02T01:42:29.253Z,3.60
2023-04-02T01:45:01.221Z,2.50
2023-04-02T01:47:33.141Z,2.83
2023-04-02T01:50:05.153Z,2.40
2023-04-02T01:52:37.036Z,2.50
2023-04-02T01:55:09.260Z,2.50
2023-04-02T01:57:41.084Z,2.67
2023-04-02T02:00:12.942Z,2.80
2023-04-02T02:02:44.282Z,2.40
2023-04-02T02:05:16.182Z,2.43
2023-04-02T02:07:49.511Z,2.43
2023-04-02T02:10:22.152Z,2.67
2023-04-02T02:12:54.151Z,2.50
2023-04-02T02:15:25.892Z,2.23
2023-04-02T02:17:57.755Z,2.23
2023-04-02T02:20:29.820Z,2.37
2023-04-02T02:23:01.753Z,2.50
2023-04-02T02:25:33.817Z,1.93
2023-04-02T02:28:05.992Z,2.40
2023-04-02T02:30:38.210Z,2.80
2023-04-02T02:33:11.234Z,3.00
2023-04-02T02:35:43.218Z,1.90
2023-04-02T02:38:15.389Z,2.30
2023-04-02T02:40:47.296Z,2.90
2023-04-02T02:43:19.696Z,2.97
2023-04-02T02:45:51.627Z,3.07
2023-04-02T02:48:23.492Z,3.50
2023-04-02T02:50:55.614Z,2.13
2023-04-02T02:53:27.507Z,2.30
2023-04-02T02:55:59.662Z,1.93
2023-04-02T02:58:33.216Z,2.00
2023-04-02T03:01:09.757Z,2.70
2023-04-02T03:03:42.265Z,3.20
2023-04-02T03:06:14.526Z,2.20
2023-04-02T03:08:46.669Z,2.20
2023-04-02T03:11:20.268Z,2.20
2023-04-02T03:13:52.287Z,2.23
2023-04-02T03:16:24.307Z,2.67
2023-04-02T03:18:57.032Z,2.40
2023-04-02T03:21:28.967Z,2.67
2023-04-02T03:24:00.881Z,2.07
2023-04-02T03:26:33.247Z,2.30
2023-04-02T03:29:05.165Z,2.13
2023-04-02T03:31:37.238Z,2.53
2023-04-02T03:34:09.191Z,1.97
2023-04-02T03:36:41.088Z,2.30
2023-04-02T03:39:13.294Z,1.80
2023-04-02T03:41:45.148Z,2.00
2023-04-02T03:44:18.246Z,1.80
2023-04-02T03:46:50.479Z,1.77
2023-04-02T03:49:22.452Z,2.10
2023-04-02T03:51:54.950Z,1.67
2023-04-02T03:54:26.902Z,2.33
2023-04-02T03:56:59.117Z,1.97
2023-04-02T03:59:32.104Z,2.00
2023-04-02T04:02:04.804Z,1.50
2023-04-02T04:04:36.832Z,2.13
2023-04-02T04:07:08.896Z,1.60
2023-04-02T04:09:40.696Z,2.10
2023-04-02T04:12:12.565Z,2.00
2023-04-02T04:14:45.367Z,2.37
2023-04-02T04:17:17.458Z,1.83
2023-04-02T04:19:49.555Z,1.80
2023-04-02T04:22:21.801Z,2.33
2023-04-02T04:24:54.718Z,2.03
2023-04-02T04:27:26.837Z,1.93
2023-04-02T04:29:58.857Z,2.00
2023-04-02T04:32:31.186Z,1.90
2023-04-02T04:35:04.568Z,2.07
2023-04-02T04:37:36.852Z,2.33
2023-04-02T04:40:09.933Z,1.67
2023-04-02T04:42:41.850Z,2.17
2023-04-02T04:45:13.766Z,2.40
2023-04-02T04:47:46.239Z,2.20
2023-04-02T04:50:18.176Z,2.23
2023-04-02T04:52:50.960Z,2.87
2023-04-02T04:55:23.769Z,1.53
2023-04-02T04:57:56.623Z,1.70
2023-04-02T05:00:28.891Z,1.87
2023-04-02T05:03:01.264Z,2.17
2023-04-02T05:05:33.479Z,1.70
2023-04-02T05:08:07.172Z,1.47
2023-04-02T05:10:39.169Z,2.00
2023-04-02T05:13:10.995Z,1.77
2023-04-02T05:15:42.888Z,2.00
2023-04-02T05:18:15.326Z,1.77
2023-04-02T05:20:47.569Z,2.27
2023-04-02T05:23:19.880Z,1.50
2023-04-02T05:25:52.157Z,1.63
2023-04-02T05:28:24.284Z,1.43
2023-04-02T05:30:56.713Z,1.60
2023-04-02T05:33:28.984Z,1.70
2023-04-02T05:36:02.621Z,2.17
2023-04-02T05:38:34.977Z,2.60
2023-04-02T05:41:07.128Z,1.80
2023-04-02T05:43:39.041Z,1.20
2023-04-02T05:46:11.028Z,1.43
2023-04-02T05:48:43.234Z,1.40
2023-04-02T05:51:16.742Z,1.33
2023-04-02T05:53:48.665Z,1.73
2023-04-02T05:56:20.675Z,1.10
2023-04-02T05:58:53.616Z,1.43
2023-04-02T06:01:27.297Z,1.40
2023-04-02T06:04:00.245Z,1.13
2023-04-02T06:06:33.788Z,1.43
2023-04-02T06:09:06.101Z,1.33
2023-04-02T06:11:38.426Z,1.27
2023-04-02T06:14:10.426Z,1.43
2023-04-02T06:16:42.458Z,1.20
2023-04-02T06:19:14.311Z,1.03
2023-04-02T06:21:46.448Z,1.10
2023-04-02T06:24:18.382Z,1.30
2023-04-02T06:26:50.788Z,1.17
2023-04-02T06:29:23.700Z,1.90
2023-04-02T06:31:56.986Z,1.23
2023-04-02T06:34:29.971Z,1.20
2023-04-02T06:37:06.293Z,1.60
2023-04-02T06:39:39.817Z,1.43
2023-04-02T06:42:12.690Z,1.20
2023-04-02T06:44:58.513Z,0.97
2023-04-02T06:47:47.466Z,1.40
2023-04-02T06:50:21.186Z,2.53
2023-04-02T06:52:53.370Z,2.57
2023-04-02T06:55:25.534Z,1.87
2023-04-02T06:57:57.519Z,1.23
2023-04-02T07:00:29.537Z,1.30
2023-04-02T07:03:01.755Z,1.47
2023-04-02T07:05:34.006Z,1.97
2023-04-02T07:08:06.297Z,1.30
2023-04-02T07:10:38.316Z,1.10
2023-04-02T07:13:10.212Z,1.50
2023-04-02T07:15:42.176Z,1.30
2023-04-02T07:18:14.475Z,1.63
2023-04-02T07:20:46.366Z,1.50
2023-04-02T07:23:19.768Z,1.10
2023-04-02T07:25:51.694Z,1.20
2023-04-02T07:28:23.592Z,1.87
2023-04-02T07:30:55.524Z,1.40
2023-04-02T07:33:27.335Z,2.00
2023-04-02T07:35:59.281Z,1.30
2023-04-02T07:38:31.246Z,1.33
2023-04-02T07:41:03.192Z,1.57
2023-04-02T07:43:35.270Z,1.20
2023-04-02T07:46:07.196Z,1.43
2023-04-02T07:48:39.050Z,1.40
2023-04-02T07:51:10.987Z,1.30
2023-04-02T07:53:42.869Z,1.40
2023-04-02T07:56:14.838Z,1.13
2023-04-02T07:58:46.697Z,1.17
2023-04-02T08:01:18.838Z,1.20
2023-04-02T08:03:52.997Z,0.77
2023-04-02T08:06:24.140Z,0.70
2023-04-02T08:08:56.057Z,0.77
2023-04-02T08:11:29.714Z,0.97
2023-04-02T08:14:01.463Z,0.90
2023-04-02T08:16:33.379Z,0.60
2023-04-02T08:19:05.285Z,0.93
2023-04-02T08:21:37.712Z,1.10
2023-04-02T08:24:10.131Z,0.93
2023-04-02T08:26:43.382Z,1.03
2023-04-02T08:29:15.448Z,1.20
2023-04-02T08:31:47.337Z,2.97
2023-04-02T08:34:19.262Z,0.77
2023-04-02T08:36:51.168Z,1.70
2023-04-02T08:39:23.225Z,1.07
2023-04-02T08:41:57.463Z,1.27
2023-04-02T08:44:29.487Z,0.80
2023-04-02T08:47:01.368Z,1.17
2023-04-02T08:49:33.203Z,1.00
2023-04-02T08:52:05.375Z,0.97
2023-04-02T08:54:37.277Z,1.10
2023-04-02T08:57:09.282Z,0.80
2023-04-02T08:59:41.197Z,1.20
2023-04-02T09:02:13.122Z,0.77
2023-04-02T09:04:45.028Z,0.80
2023-04-02T09:07:17.069Z,1.13
2023-04-02T09:09:48.954Z,1.10
2023-04-02T09:12:20.877Z,0.80
2023-04-02T09:14:53.228Z,1.00
2023-04-02T09:17:25.139Z,1.50
2023-04-02T09:19:57.063Z,1.13
2023-04-02T09:22:28.880Z,1.40
2023-04-02T09:25:01.036Z,1.43
2023-04-02T09:27:32.953Z,1.07
2023-04-02T09:30:04.798Z,1.00
2023-04-02T09:32:36.670Z,1.80
2023-04-02T09:35:18.373Z,1.07
2023-04-02T09:37:42.048Z,1.40
2023-04-02T09:40:13.920Z,1.50
2023-04-02T09:42:45.780Z,1.13
2023-04-02T09:45:17.614Z,1.63
2023-04-02T09:47:49.516Z,1.20
2023-04-02T09:50:21.436Z,0.83
2023-04-02T09:52:53.284Z,0.77
2023-04-02T09:55:25.132Z,2.57
2023-04-02T09:57:57.044Z,1.10
2023-04-02T10:00:32.558Z,0.53
2023-04-02T10:03:02.625Z,1.10
2023-04-02T10:05:39.934Z,1.03
2023-04-02T10:08:08.107Z,1.27
2023-04-02T10:10:40.004Z,1.03
2023-04-02T10:13:11.883Z,0.60
2023-04-02T10:15:43.767Z,0.87
2023-04-02T10:18:15.602Z,1.00
2023-04-02T10:20:51.276Z,0.77
2023-04-02T10:23:20.918Z,0.80
2023-04-02T10:25:52.877Z,0.63
2023-04-02T10:28:25.834Z,0.97
2023-04-02T10:30:57.792Z,0.83
2023-04-02T10:33:29.621Z,0.50
2023-04-02T10:36:01.495Z,1.33
2023-04-02T10:38:33.361Z,0.50
2023-04-02T10:41:05.183Z,0.97
2023-04-02T10:43:37.146Z,0.97
2023-04-02T10:46:09.190Z,1.03
2023-04-02T10:48:41.297Z,0.77
2023-04-02T10:51:13.151Z,1.00
2023-04-02T10:53:45.059Z,0.50
2023-04-02T10:56:16.839Z,1.57
2023-04-02T10:58:48.759Z,0.90
2023-04-02T11:01:20.643Z,0.60
2023-04-02T11:03:52.602Z,0.80
2023-04-02T11:06:25.159Z,0.60
2023-04-02T11:08:57.074Z,0.80
2023-04-02T11:11:28.944Z,0.97
2023-04-02T11:14:01.202Z,0.80
2023-04-02T11:16:33.478Z,1.00
2023-04-02T11:19:05.290Z,0.80
2023-04-02T11:21:44.843Z,0.60
2023-04-02T11:24:10.714Z,1.03
2023-04-02T11:26:42.608Z,0.77
2023-04-02T11:29:14.592Z,1.70
2023-04-02T11:31:47.199Z,1.10
2023-04-02T11:34:19.623Z,1.20
2023-04-02T11:36:51.619Z,0.73
2023-04-02T11:39:23.560Z,0.60
2023-04-02T11:41:55.486Z,1.17
2023-04-02T11:44:27.360Z,1.73
2023-04-02T11:46:59.257Z,0.97
2023-04-02T11:49:31.555Z,0.80
2023-04-02T11:52:11.568Z,1.00
2023-04-02T11:54:36.834Z,0.57
2023-04-02T11:57:08.709Z,0.87
2023-04-02T11:59:40.536Z,0.47
2023-04-02T12:02:12.469Z,0.40
2023-04-02T12:04:44.336Z,0.77
2023-04-02T12:07:16.520Z,0.47
2023-04-02T12:09:48.450Z,0.80
2023-04-02T12:12:20.295Z,0.60
2023-04-02T12:14:52.098Z,0.60
2023-04-02T12:17:23.987Z,0.50
2023-04-02T12:19:55.966Z,0.60
2023-04-02T12:22:27.808Z,0.67
2023-04-02T12:24:59.749Z,0.70
2023-04-02T12:27:31.637Z,0.50
2023-04-02T12:30:03.560Z,0.70
2023-04-02T12:32:35.468Z,0.50
2023-04-02T12:35:07.256Z,0.70
2023-04-02T12:37:39.562Z,0.60
2023-04-02T12:40:11.655Z,0.60
2023-04-02T12:42:43.478Z,0.50
2023-04-02T12:45:15.263Z,0.60
2023-04-02T12:47:47.130Z,0.80
2023-04-02T12:50:18.884Z,0.53
2023-04-02T12:52:50.695Z,0.40
2023-04-02T12:55:22.566Z,1.00
2023-04-02T12:57:54.398Z,0.60
2023-04-02T13:00:26.222Z,0.53
2023-04-02T13:02:58.075Z,0.53
2023-04-02T13:05:29.921Z,0.47
2023-04-02T13:08:01.909Z,0.70
2023-04-02T13:10:33.826Z,0.60
2023-04-02T13:13:06.004Z,0.60
2023-04-02T13:15:38.087Z,0.57
2023-04-02T13:18:10.695Z,2.13
2023-04-02T13:20:42.542Z,0.60
2023-04-02T13:23:14.388Z,0.53
2023-04-02T13:25:46.672Z,0.60
2023-04-02T13:28:18.879Z,0.50
2023-04-02T13:30:50.691Z,0.60
2023-04-02T13:33:22.733Z,0.30
2023-04-02T13:35:54.663Z,0.60
2023-04-02T13:38:26.600Z,0.50
2023-04-02T13:40:58.454Z,0.95
2023-04-02T13:43:30.505Z,0.65
2023-04-02T13:46:02.946Z,0.60
2023-04-02T13:48:34.828Z,0.60
2023-04-02T13:51:07.313Z,0.75
2023-04-02T13:53:39.709Z,0.85
2023-04-02T13:56:12.247Z,0.50
2023-04-02T13:58:44.020Z,0.80
2023-04-02T14:01:16.596Z,0.53
2023-04-02T14:03:48.481Z,0.57
2023-04-02T14:06:20.335Z,0.40
2023-04-02T14:08:52.304Z,0.47
2023-04-02T14:11:24.193Z,0.72
2023-04-02T14:13:56.606Z,0.40
2023-04-02T14:16:29.023Z,0.50
2023-04-02T14:19:01.433Z,0.70
2023-04-02T14:21:33.846Z,0.47
2023-04-02T14:24:06.396Z,0.68
2023-04-02T14:26:38.845Z,0.80
2023-04-02T14:29:11.331Z,0.50
2023-04-02T14:31:43.803Z,0.70
2023-04-02T14:34:16.292Z,0.40
2023-04-02T14:36:48.893Z,0.55
2023-04-02T14:39:21.463Z,0.70
2023-04-02T14:41:53.342Z,0.70
2023-04-02T14:44:25.242Z,0.65
2023-04-02T14:46:57.022Z,0.70
2023-04-02T14:49:28.920Z,0.57
2023-04-02T14:52:03.903Z,0.90
2023-04-02T14:54:35.021Z,0.90
2023-04-02T14:57:07.418Z,0.53
2023-04-02T14:59:39.407Z,0.70
2023-04-02T15:02:11.244Z,0.60
2023-04-02T15:04:43.069Z,0.50
2023-04-02T15:07:14.960Z,0.77
2023-04-02T15:09:46.737Z,0.40
2023-04-02T15:12:18.651Z,0.67
2023-04-02T15:14:50.544Z,0.43
2023-04-02T15:17:22.431Z,0.70
2023-04-02T15:19:54.252Z,0.50
2023-04-02T15:22:26.058Z,0.70
2023-04-02T15:24:58.094Z,0.80
2023-04-02T15:27:29.922Z,0.73
2023-04-02T15:30:01.995Z,1.03
2023-04-02T15:32:33.846Z,0.90
2023-04-02T15:35:05.772Z,0.70
2023-04-02T15:37:37.883Z,0.93
2023-04-02T15:40:09.761Z,0.80
2023-04-02T15:42:41.620Z,0.80
2023-04-02T15:45:13.518Z,1.27
2023-04-02T15:47:45.385Z,0.57
2023-04-02T15:50:17.283Z,0.80
2023-04-02T15:52:49.233Z,0.70
2023-04-02T15:55:21.046Z,0.70
2023-04-02T15:57:52.839Z,0.63
2023-04-02T16:00:24.709Z,0.40
2023-04-02T16:02:56.572Z,0.67
2023-04-02T16:05:28.610Z,0.60
2023-04-02T16:08:00.434Z,0.70
2023-04-02T16:10:41.320Z,0.70
2023-04-02T16:13:05.785Z,1.47
2023-04-02T16:15:37.626Z,0.70
2023-04-02T16:18:09.598Z,0.70
2023-04-02T16:20:41.481Z,0.60
2023-04-02T16:23:13.374Z,0.90
2023-04-02T16:25:45.245Z,0.60
2023-04-02T16:28:17.146Z,0.40
2023-04-02T16:30:48.975Z,0.47
2023-04-02T16:33:20.821Z,0.50
2023-04-02T16:35:52.660Z,0.50
2023-04-02T16:38:24.683Z,0.60
2023-04-02T16:41:07.051Z,0.57
2023-04-02T16:43:29.998Z,0.50
2023-04-02T16:46:01.845Z,0.50
2023-04-02T16:48:33.819Z,0.33
2023-04-02T16:51:05.624Z,0.50
2023-04-02T16:53:39.861Z,0.47
2023-04-02T16:56:11.009Z,0.50
2023-04-02T16:58:42.903Z,1.23
2023-04-02T17:01:14.832Z,0.57
2023-04-02T17:03:46.886Z,0.87
2023-04-02T17:06:18.790Z,0.40
2023-04-02T17:08:50.746Z,0.67
2023-04-02T17:11:22.642Z,0.87
2023-04-02T17:13:54.558Z,1.07
2023-04-02T17:16:26.502Z,0.77
2023-04-02T17:18:58.413Z,0.53
2023-04-02T17:21:30.292Z,0.70
2023-04-02T17:24:02.366Z,0.57
2023-04-02T17:26:34.262Z,0.80
2023-04-02T17:29:06.174Z,0.30
2023-04-02T17:31:38.058Z,0.40
2023-04-02T17:34:09.984Z,0.40
2023-04-02T17:36:41.885Z,0.60
2023-04-02T17:39:13.716Z,0.70
2023-04-02T17:41:45.637Z,0.60
2023-04-02T17:44:17.534Z,0.60
2023-04-02T17:46:49.485Z,0.50
2023-04-02T17:49:21.376Z,0.57
2023-04-02T17:51:53.284Z,0.90
2023-04-02T17:54:25.122Z,0.57
2023-04-02T17:56:57.008Z,0.50
2023-04-02T17:59:29.145Z,0.70
2023-04-02T18:02:01.033Z,0.80
2023-04-02T18:04:33.238Z,0.80
2023-04-02T18:07:05.082Z,1.27
2023-04-02T18:09:36.896Z,0.80
2023-04-02T18:12:08.786Z,0.47
2023-04-02T18:14:40.707Z,0.70
2023-04-02T18:17:12.596Z,0.70
2023-04-02T18:19:44.445Z,0.57
2023-04-02T18:22:16.416Z,0.63
2023-04-02T18:24:48.286Z,0.63
2023-04-02T18:27:20.213Z,0.73
2023-04-02T18:29:52.059Z,0.50
2023-04-02T18:32:23.968Z,0.63
2023-04-02T18:34:55.878Z,0.60
2023-04-02T18:37:27.761Z,0.57
2023-04-02T18:39:59.662Z,0.63
2023-04-02T18:42:31.508Z,0.37
2023-04-02T18:45:03.360Z,0.60
2023-04-02T18:47:35.261Z,0.60
2023-04-02T18:50:07.134Z,0.50
2023-04-02T18:52:39.100Z,0.50
2023-04-02T18:55:10.967Z,0.67
2023-04-02T18:57:42.928Z,0.67
2023-04-02T19:00:14.816Z,0.80
2023-04-02T19:02:46.912Z,1.00
2023-04-02T19:05:18.927Z,0.70
2023-04-02T19:07:50.776Z,0.60
2023-04-02T19:10:22.606Z,0.73
2023-04-02T19:12:54.487Z,0.70
2023-04-02T19:15:26.464Z,0.50
2023-04-02T19:17:59.482Z,0.60
2023-04-02T19:20:34.018Z,0.47
2023-04-02T19:23:06.222Z,0.67
2023-04-02T19:25:38.343Z,0.50
2023-04-02T19:28:10.466Z,0.43
2023-04-02T19:30:42.370Z,0.73
2023-04-02T19:33:14.270Z,0.73
2023-04-02T19:35:46.218Z,1.50
2023-04-02T19:38:18.113Z,0.97
2023-04-02T19:40:50.000Z,1.03
2023-04-02T19:43:21.952Z,0.90
2023-04-02T19:45:53.880Z,0.50
2023-04-02T19:48:25.783Z,0.60
2023-04-02T19:50:57.657Z,1.03
2023-04-02T19:53:29.515Z,0.50
2023-04-02T19:56:01.498Z,0.63
2023-04-02T19:58:33.345Z,0.77
2023-04-02T20:01:05.339Z,0.57
2023-04-02T20:03:37.449Z,0.53
2023-04-02T20:06:09.397Z,0.60
2023-04-02T20:08:41.260Z,0.80
2023-04-02T20:11:13.107Z,0.60
2023-04-02T20:13:44.934Z,0.87
2023-04-02T20:16:16.869Z,0.40
2023-04-02T20:18:48.741Z,0.60
2023-04-02T20:21:20.588Z,0.60
2023-04-02T20:23:52.495Z,0.77
2023-04-02T20:26:24.349Z,1.00
2023-04-02T20:28:56.252Z,0.70
2023-04-02T20:31:28.186Z,2.10
2023-04-02T20:34:00.439Z,0.60
2023-04-02T20:36:32.541Z,0.67
2023-04-02T20:39:04.697Z,1.00
2023-04-02T20:41:36.703Z,0.70
2023-04-02T20:44:08.605Z,0.83
2023-04-02T20:46:40.507Z,0.50
2023-04-02T20:49:12.477Z,0.70
2023-04-02T20:51:44.383Z,1.43
2023-04-02T20:54:16.247Z,0.57
2023-04-02T20:56:48.184Z,0.67
2023-04-02T20:59:20.316Z,1.13
2023-04-02T21:01:52.625Z,0.60
2023-04-02T21:04:24.628Z,0.70
2023-04-02T21:06:57.693Z,0.60
2023-04-02T21:09:29.882Z,0.97
2023-04-02T21:12:01.724Z,0.60
2023-04-02T21:14:33.596Z,0.70
2023-04-02T21:17:05.534Z,1.37
2023-04-02T21:19:37.358Z,0.20
2023-04-02T21:22:09.302Z,0.60
2023-04-02T21:24:41.112Z,0.50
2023-04-02T21:27:12.978Z,0.20
2023-04-02T21:29:44.863Z,1.20
2023-04-02T21:32:21.712Z,0.77
2023-04-02T21:34:50.177Z,0.47
2023-04-02T21:37:21.994Z,0.27
2023-04-02T21:39:53.964Z,0.80
2023-04-02T21:42:25.792Z,1.03
2023-04-02T21:44:57.745Z,0.40
2023-04-02T21:47:29.638Z,0.50
2023-04-02T21:50:01.483Z,0.57
2023-04-02T21:52:33.329Z,0.70
2023-04-02T21:55:05.186Z,0.40
2023-04-02T21:57:37.095Z,0.77
2023-04-02T22:00:09.060Z,0.30
2023-04-02T22:02:40.925Z,0.60
2023-04-02T22:05:12.888Z,0.43
2023-04-02T22:07:44.743Z,0.50
2023-04-02T22:10:16.600Z,0.77
2023-04-02T22:12:48.445Z,0.67
2023-04-02T22:15:20.387Z,0.50
2023-04-02T22:17:52.296Z,0.30
2023-04-02T22:20:24.106Z,0.50
2023-04-02T22:22:56.068Z,0.50
2023-04-02T22:25:27.949Z,0.23
2023-04-02T22:27:59.813Z,0.33
2023-04-02T22:30:31.673Z,0.43
2023-04-02T22:33:03.522Z,0.43
2023-04-02T22:35:35.522Z,0.93
2023-04-02T22:38:07.326Z,0.40
2023-04-02T22:40:39.160Z,0.20
2023-04-02T22:43:11.101Z,0.40
2023-04-02T22:45:42.931Z,0.30
2023-04-02T22:48:14.785Z,0.40
2023-04-02T22:50:46.559Z,0.40
2023-04-02T22:53:18.480Z,0.50
2023-04-02T22:55:50.324Z,0.53
2023-04-02T22:58:22.310Z,0.37
2023-04-02T23:00:54.146Z,0.53
2023-04-02T23:03:26.013Z,0.47
2023-04-02T23:05:58.092Z,0.50
2023-04-02T23:08:29.971Z,0.50
2023-04-02T23:11:01.879Z,0.97
2023-04-02T23:13:33.729Z,0.30
2023-04-02T23:16:05.675Z,0.50
2023-04-02T23:18:37.718Z,1.80
2023-04-02T23:21:09.573Z,0.60
2023-04-02T23:23:41.640Z,0.63
2023-04-02T23:26:13.507Z,0.33
2023-04-02T23:28:45.357Z,0.20
2023-04-02T23:31:17.437Z,0.40
2023-04-02T23:33:49.260Z,0.50
2023-04-02T23:36:21.152Z,0.43
2023-04-02T23:38:53.049Z,0.40
2023-04-02T23:41:24.911Z,0.63
2023-04-02T23:43:56.719Z,0.67
2023-04-02T23:46:28.640Z,0.50
2023-04-02T23:49:00.546Z,0.40
2023-04-02T23:51:32.500Z,0.40
2023-04-02T23:54:04.268Z,0.50
2023-04-02T23:56:36.088Z,0.40
2023-04-02T23:59:07.986Z,0.40
